Harmon, Arkansas
Current Conditions -  °F | °C
As of 12:53 PM on Tuesday 21 Oct 2014 (Local Time) from KFYV Reporting Station
Clear Clear  
Wind Chill: 22°   Ceiling: Unl
Heat Index: 22°   Visibility: 10mi
Dew Point: 12°   Wind: 6mph
Humidity: 53%   Direction: 240°WSW
Pressure: 30.13"   Gusts: NA
Location:  35.9902°N, 94.083°W
Report Text: KFYV 211753Z 24005KT 10SM CLR 22/12 A3013 RMK AO2 SLP195 T02220122 10228 20083 58011
Loading
Personal Weather Stations






























Interactive Weather Map
Tropical Storm Tracking
New forecast layout! Learn more

10-Day Weather Forecast

Advertisements
Track Severe Weather on mobile